Time;durP1;ratioP1;P1;durP2;ratioP2;P2;SDS_P1;SDS_P2;PMS_P1;PMS_P2;Temp;Humidity;BMP_temperature;BMP_pressure;BME280_temperature;BME280_humidity;BME280_pressure;Samples;Min_cycle;Max_cycle;Signal;HPM_P1;HPM_P2
2023/11/15 00:02:07;;;;;;;1999.90;999.90;;;;;;;5.02;87.76;96007.88;5134644;27;20039;-63
2023/11/15 00:04:36;;;;;;;1999.90;999.90;;;;;;;5.11;87.59;95991.25;5134732;27;20047;-62
2023/11/15 00:07:06;;;;;;;1999.90;999.90;;;;;;;5.15;87.79;95982.53;5134441;27;20047;-63
2023/11/15 00:09:33;;;;;;;1999.90;999.90;;;;;;;5.17;87.58;95981.59;5134954;27;20051;-63
2023/11/15 00:12:01;;;;;;;1999.90;999.90;;;;;;;5.24;87.50;95987.47;5134562;27;20046;-65
2023/11/15 00:14:28;;;;;;;1999.90;999.90;;;;;;;5.27;86.90;95984.78;5134480;27;20051;-63
2023/11/15 00:16:55;;;;;;;1999.90;999.90;;;;;;;5.28;86.41;95972.69;5134386;27;20503;-64
2023/11/15 00:19:23;;;;;;;1999.90;999.90;;;;;;;5.24;86.75;95961.53;5134528;27;20055;-64
2023/11/15 00:21:50;;;;;;;1999.90;999.90;;;;;;;5.16;87.21;95964.34;5134417;27;20043;-63
2023/11/15 00:24:19;;;;;;;1999.90;999.90;;;;;;;5.11;87.07;95960.13;5134336;27;20133;-64
2023/11/15 00:26:46;;;;;;;1999.90;999.90;;;;;;;5.02;87.68;95961.22;5134244;27;20472;-65
2023/11/15 00:29:14;;;;;;;1999.90;999.90;;;;;;;5.09;87.43;95961.94;5134177;27;20446;-64
2023/11/15 00:31:41;;;;;;;1999.90;999.90;;;;;;;5.09;87.20;95965.34;5134160;27;20504;-65
2023/11/15 00:34:09;;;;;;;1999.90;999.90;;;;;;;5.14;86.85;95971.28;5134322;27;20559;-64
2023/11/15 00:36:39;;;;;;;1999.90;999.90;;;;;;;5.15;86.88;95979.94;5134041;27;20492;-64
2023/11/15 00:39:08;;;;;;;1999.90;999.90;;;;;;;5.09;87.03;95987.88;5134228;27;20047;-64
2023/11/15 00:41:37;;;;;;;1999.90;999.90;;;;;;;5.08;87.53;95978.38;5134279;27;20142;-65
2023/11/15 00:44:06;;;;;;;1999.90;999.90;;;;;;;5.11;88.08;95971.38;5134255;27;20043;-64
2023/11/15 00:46:33;;;;;;;1999.90;999.90;;;;;;;4.98;88.37;95965.66;5133912;27;20054;-65
2023/11/15 00:49:01;;;;;;;1999.90;999.90;;;;;;;5.03;88.93;95978.50;5134161;28;20039;-64
2023/11/15 00:51:28;;;;;;;1999.90;999.90;;;;;;;5.11;88.50;95975.69;5134093;28;20043;-65
2023/11/15 00:53:55;;;;;;;1999.90;999.90;;;;;;;5.14;87.39;95968.69;5134061;27;20039;-65
2023/11/15 00:56:22;;;;;;;1999.90;999.90;;;;;;;5.12;87.41;95969.63;5134005;27;20107;-62
2023/11/15 00:58:50;;;;;;;1999.90;999.90;;;;;;;5.11;87.32;95960.13;5133953;27;20129;-63
2023/11/15 01:01:17;;;;;;;1999.90;999.90;;;;;;;5.11;87.33;95950.63;5133926;27;20065;-65
2023/11/15 01:03:55;;;;;;;1999.90;999.90;;;;;;;5.10;87.49;95943.75;5134005;28;20054;-65
2023/11/15 01:06:22;;;;;;;1999.90;999.90;;;;;;;5.09;87.63;95942.03;5133800;27;20039;-64
2023/11/15 01:08:49;;;;;;;1999.90;999.90;;;;;;;5.12;88.03;95939.34;5136753;27;20066;-63
2023/11/15 01:11:17;;;;;;;1999.90;999.90;;;;;;;5.14;89.93;95939.31;5138416;27;20099;-64
2023/11/15 01:13:44;;;;;;;1999.90;999.90;;;;;;;5.15;89.63;95949.66;5137990;27;20039;-63
2023/11/15 01:16:13;;;;;;;1999.90;999.90;;;;;;;5.17;88.91;95941.81;5138238;27;20047;-63
2023/11/15 01:18:40;;;;;;;1999.90;999.90;;;;;;;5.17;88.62;95947.88;5137902;27;20053;-64
2023/11/15 01:21:09;;;;;;;1999.90;999.90;;;;;;;5.21;87.70;95935.66;5137888;27;20051;-65
2023/11/15 01:23:36;;;;;;;1999.90;999.90;;;;;;;5.10;87.87;95933.38;5138006;27;20051;-62
2023/11/15 01:26:05;;;;;;;1999.90;999.90;;;;;;;5.06;88.36;95923.97;5137873;27;20043;-64
2023/11/15 01:28:32;;;;;;;1999.90;999.90;;;;;;;5.11;88.33;95911.72;5137703;27;20043;-63
2023/11/15 01:30:59;;;;;;;1999.90;999.90;;;;;;;5.13;87.92;95920.34;5137664;27;20043;-63
2023/11/15 01:33:28;;;;;;;1999.90;999.90;;;;;;;5.15;87.80;95926.31;5137590;27;20488;-64
2023/11/15 01:35:55;;;;;;;1999.90;999.90;;;;;;;5.18;87.62;95926.22;5137455;27;20043;-64
2023/11/15 01:38:22;;;;;;;1999.90;999.90;;;;;;;5.18;87.38;95922.81;5137620;27;20134;-63
2023/11/15 01:40:49;;;;;;;1999.90;999.90;;;;;;;5.17;86.78;95924.53;5137564;27;20043;-64
2023/11/15 01:43:16;;;;;;;1999.90;999.90;;;;;;;5.13;87.03;95909.09;5137828;27;20080;-63
2023/11/15 01:45:43;;;;;;;1999.90;999.90;;;;;;;5.03;86.79;95901.56;5137269;27;20220;-63
2023/11/15 01:48:11;;;;;;;1999.90;999.90;;;;;;;4.99;87.17;95901.66;5137292;27;20047;-66
2023/11/15 01:50:39;;;;;;;1999.90;999.90;;;;;;;4.99;87.09;95902.53;5137665;27;20074;-63
2023/11/15 01:53:07;;;;;;;1999.90;999.90;;;;;;;4.96;86.90;95894.84;5137402;27;20078;-63
2023/11/15 01:55:34;;;;;;;1999.90;999.90;;;;;;;4.98;86.25;95893.06;5137283;27;20560;-65
2023/11/15 01:58:02;;;;;;;1999.90;999.90;;;;;;;4.97;86.36;95893.94;5137361;27;20547;-65
2023/11/15 02:00:29;;;;;;;1999.90;999.90;;;;;;;4.96;87.11;95891.41;5137269;27;20152;-62
2023/11/15 02:02:56;;;;;;;1999.90;999.90;;;;;;;4.90;87.35;95887.22;5137413;27;20130;-65
2023/11/15 02:05:25;;;;;;;1999.90;999.90;;;;;;;4.87;87.96;95892.47;5136965;27;20047;-65
2023/11/15 02:07:54;;;;;;;1999.90;999.90;;;;;;;4.84;87.93;95895.16;5136878;27;20043;-63
2023/11/15 02:10:22;;;;;;;1999.90;999.90;;;;;;;4.85;87.39;95892.50;5137223;27;20047;-65
2023/11/15 02:12:49;;;;;;;1999.90;999.90;;;;;;;4.89;86.94;95907.13;5136859;27;20111;-64
2023/11/15 02:15:16;;;;;;;1999.90;999.90;;;;;;;4.85;87.07;95910.66;5136752;27;20480;-66
2023/11/15 02:17:45;;;;;;;1999.90;999.90;;;;;;;4.85;86.86;95900.28;5136775;27;20043;-63
2023/11/15 02:20:13;;;;;;;1999.90;999.90;;;;;;;4.86;87.06;95907.19;5135800;27;20043;-63
2023/11/15 02:22:46;;;;;;;1999.90;999.90;;;;;;;4.79;86.96;95901.28;5136746;27;20051;-65
2023/11/15 02:25:15;;;;;;;1999.90;999.90;;;;;;;4.77;87.39;95903.09;5136682;27;20043;-63
2023/11/15 02:27:43;;;;;;;1999.90;999.90;;;;;;;4.78;87.39;95903.94;5136487;27;20130;-63
2023/11/15 02:30:11;;;;;;;1999.90;999.90;;;;;;;4.83;87.44;95896.03;5136552;27;20123;-64
2023/11/15 02:32:38;;;;;;;1999.90;999.90;;;;;;;4.84;87.67;95902.94;5136495;27;20553;-63
2023/11/15 02:35:07;;;;;;;1999.90;999.90;;;;;;;4.87;86.82;95895.06;5136290;27;20074;-64
2023/11/15 02:37:34;;;;;;;1999.90;999.90;;;;;;;4.82;87.19;95887.44;5136462;27;20145;-63
2023/11/15 02:40:04;;;;;;;1999.90;999.90;;;;;;;4.82;86.72;95896.94;5136373;27;20549;-65
2023/11/15 02:42:34;;;;;;;1999.90;999.90;;;;;;;4.79;86.60;95896.13;5136385;27;20132;-65
2023/11/15 02:45:01;;;;;;;1999.90;999.90;;;;;;;4.74;86.90;95892.81;5136329;27;20468;-64
2023/11/15 02:47:28;;;;;;;1999.90;999.90;;;;;;;4.76;87.02;95888.41;5135984;27;20055;-63
2023/11/15 02:49:55;;;;;;;1999.90;999.90;;;;;;;4.67;87.16;95884.31;5136150;27;20043;-64
2023/11/15 02:52:23;;;;;;;1999.90;999.90;;;;;;;4.61;87.47;95876.69;5136060;27;20059;-64
2023/11/15 02:54:50;;;;;;;1999.90;999.90;;;;;;;4.60;88.53;95872.41;5136052;27;20075;-64
2023/11/15 02:57:18;;;;;;;1999.90;999.90;;;;;;;4.64;88.70;95865.41;5136333;27;20047;-64
2023/11/15 02:59:46;;;;;;;1999.90;999.90;;;;;;;4.68;88.78;95882.59;5136103;27;20070;-65
2023/11/15 03:02:14;;;;;;;1999.90;999.90;;;;;;;4.73;88.56;95880.72;5135945;27;20053;-62
2023/11/15 03:04:41;;;;;;;1999.90;999.90;;;;;;;4.74;88.22;95882.44;5135950;27;20104;-64
2023/11/15 03:07:09;;;;;;;1999.90;999.90;;;;;;;4.80;88.33;95889.19;5135778;27;20051;-63
2023/11/15 03:09:36;;;;;;;1999.90;999.90;;;;;;;4.82;88.90;95874.47;5136098;27;20066;-64
2023/11/15 03:12:03;;;;;;;1999.90;999.90;;;;;;;4.85;88.53;95871.78;5135723;27;20051;-63
2023/11/15 03:14:30;;;;;;;1999.90;999.90;;;;;;;4.79;88.69;95874.56;5135722;27;20046;-64
2023/11/15 03:17:06;;;;;;;1999.90;999.90;;;;;;;4.84;88.67;95888.22;5135903;27;20420;-64
2023/11/15 03:19:33;;;;;;;1999.90;999.90;;;;;;;4.88;88.88;95884.66;5135757;27;20074;-64
2023/11/15 03:22:00;;;;;;;1999.90;999.90;;;;;;;4.84;89.09;95877.03;5135607;27;20449;-63
2023/11/15 03:24:28;;;;;;;1999.90;999.90;;;;;;;4.83;88.97;95872.72;5135610;27;20070;-64
2023/11/15 03:26:57;;;;;;;1999.90;999.90;;;;;;;4.82;88.96;95884.84;5135586;27;20043;-61
2023/11/15 03:29:24;;;;;;;1999.90;999.90;;;;;;;4.86;88.51;95894.22;5135563;27;20054;-64
2023/11/15 03:31:51;;;;;;;1999.90;999.90;;;;;;;4.81;88.31;95890.91;5135456;27;20043;-64
2023/11/15 03:34:20;;;;;;;1999.90;999.90;;;;;;;4.80;88.13;95895.25;5135163;27;20438;-64
2023/11/15 03:36:47;;;;;;;1999.90;999.90;;;;;;;4.79;87.49;95890.94;5135412;27;20047;-65
2023/11/15 03:39:15;;;;;;;1999.90;999.90;;;;;;;4.76;87.38;95888.41;5135320;27;20047;-65
2023/11/15 03:41:42;;;;;;;1999.90;999.90;;;;;;;4.75;87.64;95898.81;5135137;27;20065;-63
2023/11/15 03:44:10;;;;;;;1999.90;999.90;;;;;;;4.68;88.83;95890.38;5135126;27;20130;-65
2023/11/15 03:46:36;;;;;;;1999.90;999.90;;;;;;;4.63;89.25;95889.59;5135002;27;20047;-65
2023/11/15 03:49:04;;;;;;;1999.90;999.90;;;;;;;4.66;88.89;95886.94;5134843;27;20043;-63
2023/11/15 03:51:32;;;;;;;1999.90;999.90;;;;;;;4.64;88.62;95884.38;5134902;27;20047;-65
2023/11/15 03:53:59;;;;;;;1999.90;999.90;;;;;;;4.55;88.48;95882.88;5135026;27;20047;-63
2023/11/15 03:56:26;;;;;;;1999.90;999.90;;;;;;;4.57;88.54;95877.66;5135060;27;20054;-64
2023/11/15 03:58:53;;;;;;;1999.90;999.90;;;;;;;4.57;87.85;95874.25;5134758;27;20039;-64
2023/11/15 04:01:20;;;;;;;1999.90;999.90;;;;;;;4.55;87.89;95866.50;5135242;27;20054;-63
2023/11/15 04:03:47;;;;;;;1999.90;999.90;;;;;;;4.51;87.74;95857.09;5134724;27;20081;-65
2023/11/15 04:06:14;;;;;;;1999.90;999.90;;;;;;;4.43;87.87;95852.13;5134740;27;20047;-62
2023/11/15 04:08:44;;;;;;;1999.90;999.90;;;;;;;4.39;88.44;95848.75;5134604;27;20119;-64
2023/11/15 04:11:11;;;;;;;1999.90;999.90;;;;;;;4.38;88.08;95844.47;5134552;27;20131;-62
2023/11/15 04:13:38;;;;;;;1999.90;999.90;;;;;;;4.31;88.82;95842.91;5134582;27;20043;-64
2023/11/15 04:16:07;;;;;;;1999.90;999.90;;;;;;;4.33;88.87;95845.47;5134507;27;20122;-64
2023/11/15 04:18:35;;;;;;;1999.90;999.90;;;;;;;4.34;88.75;95829.88;5134522;27;20497;-64
2023/11/15 04:21:02;;;;;;;1999.90;999.90;;;;;;;4.34;88.72;95823.84;5134458;27;20046;-64
2023/11/15 04:23:29;;;;;;;1999.90;999.90;;;;;;;4.33;88.64;95823.00;5134285;27;20080;-64
2023/11/15 04:25:58;;;;;;;1999.90;999.90;;;;;;;4.26;88.95;95821.44;5134577;27;20082;-64
2023/11/15 04:28:26;;;;;;;1999.90;999.90;;;;;;;4.30;89.33;95807.53;5134303;27;20134;-64
2023/11/15 04:30:53;;;;;;;1999.90;999.90;;;;;;;4.31;89.03;95806.66;5134349;27;20134;-64
2023/11/15 04:33:20;;;;;;;1999.90;999.90;;;;;;;4.26;88.96;95817.13;5134272;27;20043;-63
2023/11/15 04:35:47;;;;;;;1999.90;999.90;;;;;;;4.29;89.36;95818.78;5134084;27;20047;-64
2023/11/15 04:38:18;;;;;;;1999.90;999.90;;;;;;;4.29;89.56;95818.78;5134233;27;20601;-62
2023/11/15 04:40:45;;;;;;;1999.90;999.90;;;;;;;4.28;89.73;95812.75;5133788;27;20782;-63
2023/11/15 04:43:13;;;;;;;1999.90;999.90;;;;;;;4.18;90.39;95816.44;5133906;27;20496;-64
2023/11/15 04:45:41;;;;;;;1999.90;999.90;;;;;;;4.24;90.79;95815.47;5134337;27;20092;-64
2023/11/15 04:48:08;;;;;;;1999.90;999.90;;;;;;;4.32;90.50;95812.66;5133933;27;20096;-64
2023/11/15 04:50:36;;;;;;;1999.90;999.90;;;;;;;4.29;90.14;95804.09;5133949;27;20511;-63
2023/11/15 04:53:05;;;;;;;1999.90;999.90;;;;;;;4.33;90.60;95806.63;5134065;27;20079;-65
2023/11/15 04:55:32;;;;;;;1999.90;999.90;;;;;;;4.37;90.36;95803.88;5133980;28;20039;-64
2023/11/15 04:58:00;;;;;;;1999.90;999.90;;;;;;;4.44;90.37;95794.25;5134118;27;20051;-63
2023/11/15 05:00:29;;;;;;;1999.90;999.90;;;;;;;4.44;89.70;95794.25;5133972;27;20100;-64
2023/11/15 05:02:56;;;;;;;1999.90;999.90;;;;;;;4.38;90.15;95786.63;5133810;27;20493;-63
2023/11/15 05:05:23;;;;;;;1999.90;999.90;;;;;;;4.45;90.94;95779.56;5134043;27;20100;-63
2023/11/15 05:07:50;;;;;;;1999.90;999.90;;;;;;;4.47;91.07;95781.22;5133763;28;20065;-63
2023/11/15 05:10:19;;;;;;;1999.90;999.90;;;;;;;4.46;90.79;95773.47;5133893;28;20079;-64
2023/11/15 05:12:46;;;;;;;1999.90;999.90;;;;;;;4.50;90.94;95775.09;5133993;27;20065;-64
2023/11/15 05:15:13;;;;;;;1999.90;999.90;;;;;;;4.47;90.69;95777.75;5133783;28;20073;-64
2023/11/15 05:17:42;;;;;;;1999.90;999.90;;;;;;;4.49;90.76;95770.81;5133846;27;20078;-65
2023/11/15 05:20:14;;;;;;;1999.90;999.90;;;;;;;4.52;90.47;95770.75;5133830;27;20051;-64
2023/11/15 05:22:42;;;;;;;1999.90;999.90;;;;;;;4.59;90.37;95772.28;5133878;27;20058;-63
2023/11/15 05:25:09;;;;;;;1999.90;999.90;;;;;;;4.63;90.27;95760.94;5133702;27;20043;-63
2023/11/15 05:27:37;;;;;;;1999.90;999.90;;;;;;;4.69;90.26;95762.50;5133663;27;20039;-64
2023/11/15 05:30:04;;;;;;;1999.90;999.90;;;;;;;4.77;90.27;95759.72;5133907;28;20071;-65
2023/11/15 05:32:32;;;;;;;1999.90;999.90;;;;;;;4.85;90.52;95754.31;5133707;28;20054;-63
2023/11/15 05:35:01;;;;;;;1999.90;999.90;;;;;;;4.98;90.27;95755.69;5133561;27;20048;-65
2023/11/15 05:37:29;;;;;;;1999.90;999.90;;;;;;;5.08;89.43;95756.25;5133610;28;20134;-62
2023/11/15 05:39:57;;;;;;;1999.90;999.90;;;;;;;5.19;89.33;95750.75;5133675;27;20122;-64
2023/11/15 05:42:25;;;;;;;1999.90;999.90;;;;;;;5.31;89.10;95747.81;5133676;27;20048;-64
2023/11/15 05:44:53;;;;;;;1999.90;999.90;;;;;;;5.41;89.06;95743.19;5133545;27;20488;-65
2023/11/15 05:47:25;;;;;;;1999.90;999.90;;;;;;;5.56;88.98;95747.06;5133220;27;20415;-65
2023/11/15 05:49:54;;;;;;;1999.90;999.90;;;;;;;5.82;89.71;95755.75;5133414;28;20047;-64
2023/11/15 05:52:23;;;;;;;1999.90;999.90;;;;;;;6.74;89.03;95751.09;5133516;27;20463;-63
2023/11/15 05:54:50;;;;;;;1999.90;999.90;;;;;;;7.26;83.25;95743.16;5134410;27;20091;-63
2023/11/15 05:57:20;;;;;;;1999.90;999.90;;;;;;;7.45;80.75;95747.66;5137254;27;20043;-64
2023/11/15 05:59:47;;;;;;;1999.90;999.90;;;;;;;7.62;80.53;95744.41;5137104;27;20054;-63
2023/11/15 06:02:14;;;;;;;1999.90;999.90;;;;;;;7.88;79.47;95742.50;5137338;27;20088;-65
2023/11/15 06:04:42;;;;;;;1999.90;999.90;;;;;;;8.28;77.77;95755.66;5137119;27;20039;-62
2023/11/15 06:07:09;;;;;;;1999.90;999.90;;;;;;;8.55;76.16;95745.03;5136950;27;20054;-64
2023/11/15 06:09:38;;;;;;;1999.90;999.90;;;;;;;9.40;73.21;95751.81;5136918;27;20043;-64
2023/11/15 06:12:06;;;;;;;1999.90;999.90;;;;;;;9.84;70.40;95761.94;5137283;27;20043;-65
2023/11/15 06:14:33;;;;;;;1999.90;999.90;;;;;;;10.28;68.48;95770.31;5136935;27;20047;-64
2023/11/15 06:17:01;;;;;;;1999.90;999.90;;;;;;;10.80;67.68;95758.19;5136932;27;20476;-65
2023/11/15 06:19:28;;;;;;;1999.90;999.90;;;;;;;11.84;64.82;95746.59;5136795;27;20050;-65
2023/11/15 06:21:56;;;;;;;1999.90;999.90;;;;;;;13.44;60.15;95756.63;5136727;27;20065;-66
2023/11/15 06:24:23;;;;;;;1999.90;999.90;;;;;;;14.96;55.96;95763.59;5136563;27;20493;-63
2023/11/15 06:26:52;;;;;;;1999.90;999.90;;;;;;;16.61;50.64;95774.06;5136693;27;20051;-65
2023/11/15 06:29:22;;;;;;;1999.90;999.90;;;;;;;18.05;46.50;95775.41;5136431;27;20059;-63
2023/11/15 06:31:49;;;;;;;1999.90;999.90;;;;;;;19.36;42.97;95769.19;5136614;27;20126;-66
2023/11/15 06:34:16;;;;;;;1999.90;999.90;;;;;;;20.45;41.39;95767.69;5136282;27;20058;-62
2023/11/15 06:36:45;;;;;;;1999.90;999.90;;;;;;;20.89;39.59;95753.09;5136531;27;20058;-63
2023/11/15 06:39:13;;;;;;;1999.90;999.90;;;;;;;21.91;38.20;95738.41;5136440;27;20127;-65
2023/11/15 06:41:40;;;;;;;1999.90;999.90;;;;;;;22.64;36.55;95755.31;5136407;27;20051;-63
2023/11/15 06:44:10;;;;;;;1999.90;999.90;;;;;;;23.09;34.88;95757.97;5136451;27;20043;-65
2023/11/15 06:46:38;;;;;;;1999.90;999.90;;;;;;;23.55;34.33;95752.44;5136501;27;20047;-65
2023/11/15 06:49:06;;;;;;;1999.90;999.90;;;;;;;23.47;34.01;95766.56;5136244;27;20054;-64
2023/11/15 06:51:33;;;;;;;1999.90;999.90;;;;;;;23.07;34.57;95767.94;5136286;27;20078;-63
2023/11/15 06:54:02;;;;;;;1999.90;999.90;;;;;;;22.16;35.18;95754.63;5136112;27;20051;-62
2023/11/15 06:56:29;;;;;;;1999.90;999.90;;;;;;;21.79;36.59;95754.56;5136086;27;20062;-64
2023/11/15 06:58:57;;;;;;;1999.90;999.90;;;;;;;21.30;37.16;95744.94;5136062;27;20051;-66
2023/11/15 07:01:27;;;;;;;1999.90;999.90;;;;;;;21.76;37.16;95749.53;5135893;27;20083;-65
2023/11/15 07:03:56;;;;;;;1999.90;999.90;;;;;;;23.34;35.31;95763.47;5135946;27;20544;-64
2023/11/15 07:06:23;;;;;;;1999.90;999.90;;;;;;;24.94;32.92;95764.66;5135552;27;20495;-64
2023/11/15 07:08:51;;;;;;;1999.90;999.90;;;;;;;25.77;31.68;95771.72;5135924;27;20130;-62
2023/11/15 07:11:18;;;;;;;1999.90;999.90;;;;;;;26.42;30.40;95771.59;5135915;27;20457;-65
2023/11/15 07:13:45;;;;;;;1999.90;999.90;;;;;;;26.49;30.36;95775.22;5135792;27;20043;-63
2023/11/15 07:16:12;;;;;;;1999.90;999.90;;;;;;;26.82;30.04;95773.34;5135596;27;20055;-66
2023/11/15 07:18:40;;;;;;;1522.65;771.35;;;;;;;27.47;29.43;95768.41;5135627;27;20511;-66
2023/11/15 07:21:08;;;;;;;88.28;83.15;;;;;;;28.05;28.69;95768.81;5135838;27;20046;-64
2023/11/15 07:23:35;;;;;;;92.72;87.32;;;;;;;28.79;26.18;95758.00;5135479;27;20054;-66
2023/11/15 07:26:02;;;;;;;100.53;94.82;;;;;;;28.66;26.41;95746.13;5135419;27;20460;-63
2023/11/15 07:28:30;;;;;;;77.13;72.53;;;;;;;28.78;26.62;95745.59;5135372;27;20047;-63
2023/11/15 07:30:58;;;;;;;74.70;70.25;;;;;;;28.87;25.85;95739.88;5135439;27;20070;-64
2023/11/15 07:33:25;;;;;;;62.88;58.95;;;;;;;29.07;25.51;95744.63;5135387;27;20122;-65
2023/11/15 07:35:56;;;;;;;59.67;56.22;;;;;;;29.51;24.60;95749.91;5135038;27;20508;-62
2023/11/15 07:38:23;;;;;;;45.20;42.10;;;;;;;29.14;23.91;95753.59;5135256;27;20096;-63
2023/11/15 07:40:51;;;;;;;41.55;38.72;;;;;;;27.58;25.89;95742.13;5135225;27;20130;-65
2023/11/15 07:43:18;;;;;;;43.17;40.45;;;;;;;26.57;27.50;95736.81;5135037;27;20485;-63
2023/11/15 07:45:51;;;;;;;38.97;36.67;;;;;;;25.90;28.84;95731.00;5135183;27;20053;-65
2023/11/15 07:48:18;;;;;;;38.85;36.25;;;;;;;26.13;28.52;95732.91;5134905;27;20043;-63
2023/11/15 07:50:46;;;;;;;36.55;34.30;;;;;;;26.63;27.92;95740.63;5135036;27;20074;-63
2023/11/15 07:53:15;;;;;;;39.08;36.53;;;;;;;26.72;27.69;95747.59;5135081;27;20043;-64
2023/11/15 07:55:42;;;;;;;37.55;35.35;;;;;;;27.09;27.48;95750.50;5135218;27;20050;-66
2023/11/15 07:58:11;;;;;;;37.05;34.63;;;;;;;26.97;27.46;95755.44;5134878;27;20047;-64
2023/11/15 08:00:38;;;;;;;38.90;36.35;;;;;;;26.70;28.16;95752.28;5134804;27;20549;-65
2023/11/15 08:03:05;;;;;;;37.65;35.28;;;;;;;26.19;28.84;95742.88;5134858;27;20043;-64
2023/11/15 08:05:33;;;;;;;35.13;32.80;;;;;;;25.42;29.64;95742.53;5134751;27;20584;-64
2023/11/15 08:08:00;;;;;;;36.22;33.92;;;;;;;25.01;30.53;95737.25;5134685;27;20055;-66
2023/11/15 08:10:31;;;;;;;36.60;34.13;;;;;;;24.62;30.93;95734.22;5134680;27;20074;-66
2023/11/15 08:12:58;;;;;;;38.10;35.40;;;;;;;24.34;30.92;95738.03;5134802;27;20050;-65
2023/11/15 08:15:25;;;;;;;43.08;40.25;;;;;;;23.92;31.65;95729.06;5134578;27;20047;-64
2023/11/15 08:17:52;;;;;;;48.20;45.03;;;;;;;23.70;31.46;95725.16;5133898;27;20062;-65
2023/11/15 08:20:20;;;;;;;45.88;42.92;;;;;;;23.31;31.79;95732.59;5134425;27;20058;-64
2023/11/15 08:22:47;;;;;;;48.78;45.08;;;;;;;23.17;32.09;95725.16;5134568;27;20096;-64
2023/11/15 08:25:14;;;;;;;48.58;45.55;;;;;;;22.76;33.14;95721.25;5134531;27;20074;-64
2023/11/15 08:27:43;;;;;;;49.50;46.45;;;;;;;22.56;33.69;95723.22;5134385;27;20047;-63
2023/11/15 08:30:16;;;;;;;48.80;45.80;;;;;;;22.36;33.98;95712.72;5134205;27;20085;-66
2023/11/15 08:32:44;;;;;;;58.28;54.85;;;;;;;22.18;34.47;95712.69;5134344;27;20511;-63
2023/11/15 08:35:14;;;;;;;55.42;52.13;;;;;;;21.84;34.55;95711.53;5133924;27;20115;-66
2023/11/15 08:37:42;;;;;;;544.72;292.10;;;;;;;21.34;35.95;95708.22;5134226;27;20051;-63
2023/11/15 08:40:12;;;;;;;1999.90;999.90;;;;;;;21.00;36.89;95711.44;5134479;27;20051;-64
2023/11/15 08:42:39;;;;;;;1999.90;999.90;;;;;;;20.62;37.14;95706.03;5134159;27;20051;-65
2023/11/15 08:45:10;;;;;;;1999.90;999.90;;;;;;;20.37;37.42;95708.25;5134065;27;20083;-65
2023/11/15 08:47:37;;;;;;;1999.90;999.90;;;;;;;20.15;37.59;95707.56;5134116;27;20130;-65
2023/11/15 08:50:08;;;;;;;1999.90;999.90;;;;;;;19.76;37.80;95695.91;5134041;27;20086;-63
2023/11/15 08:52:36;;;;;;;1999.90;999.90;;;;;;;19.39;39.85;95694.66;5133987;28;20385;-64
2023/11/15 08:55:05;;;;;;;1999.90;999.90;;;;;;;19.10;39.83;95694.53;5134145;27;20039;-66
2023/11/15 08:57:33;;;;;;;1999.90;999.90;;;;;;;18.86;40.49;95695.63;5134103;27;20404;-64
2023/11/15 09:00:00;;;;;;;1999.90;999.90;;;;;;;18.69;41.20;95682.00;5134000;27;20082;-62
2023/11/15 09:02:31;;;;;;;1999.90;999.90;;;;;;;18.52;42.24;95684.31;5133958;28;20073;-64
2023/11/15 09:05:01;;;;;;;1999.90;999.90;;;;;;;18.37;42.94;95678.47;5133975;28;20099;-63
2023/11/15 09:07:29;;;;;;;1999.90;999.90;;;;;;;18.26;42.51;95678.50;5133998;28;20134;-62
2023/11/15 09:09:57;;;;;;;1999.90;999.90;;;;;;;18.19;42.22;95671.09;5133871;27;20050;-63
2023/11/15 09:12:30;;;;;;;1999.90;999.90;;;;;;;18.16;42.50;95681.09;5133938;28;20050;-62
2023/11/15 09:14:58;;;;;;;1999.90;999.90;;;;;;;18.17;42.72;95680.97;5133861;27;20503;-64
2023/11/15 09:17:25;;;;;;;1999.90;999.90;;;;;;;18.26;42.29;95679.38;5133830;28;20048;-65
2023/11/15 09:19:59;;;;;;;1999.90;999.90;;;;;;;18.35;42.49;95682.22;5133908;27;20099;-64
2023/11/15 09:22:27;;;;;;;1999.90;999.90;;;;;;;18.34;41.73;95672.59;5133788;27;20047;-63
2023/11/15 09:24:55;;;;;;;1999.90;999.90;;;;;;;18.38;40.56;95679.31;5133772;28;20136;-65
2023/11/15 09:27:23;;;;;;;1999.90;999.90;;;;;;;18.47;40.75;95669.75;5133678;28;20377;-63
2023/11/15 09:29:51;;;;;;;1999.90;999.90;;;;;;;18.48;40.19;95671.44;5136381;27;20082;-65
2023/11/15 09:32:19;;;;;;;1999.90;999.90;;;;;;;18.63;40.16;95674.63;5137686;27;20040;-64
2023/11/15 09:34:47;;;;;;;1999.90;999.90;;;;;;;18.72;40.93;95662.41;5137424;27;20497;-64
2023/11/15 09:37:16;;;;;;;1999.90;999.90;;;;;;;18.79;40.17;95660.91;5137576;27;20051;-65
2023/11/15 09:39:45;;;;;;;1999.90;999.90;;;;;;;18.87;41.02;95647.81;5137658;27;20043;-62
2023/11/15 09:42:19;;;;;;;1999.90;999.90;;;;;;;18.99;40.60;95658.34;5137508;27;20394;-66
2023/11/15 09:44:49;;;;;;;1999.90;999.90;;;;;;;19.09;40.53;95659.28;5137722;27;20047;-63
2023/11/15 09:47:16;;;;;;;1999.90;999.90;;;;;;;19.22;39.83;95672.28;5137582;27;20047;-63
2023/11/15 09:49:45;;;;;;;1999.90;999.90;;;;;;;19.27;39.72;95663.94;5137399;27;20051;-62
2023/11/15 09:52:13;;;;;;;1999.90;999.90;;;;;;;19.33;40.25;95663.41;5137232;27;20408;-63
2023/11/15 09:54:43;;;;;;;1999.90;999.90;;;;;;;19.42;39.47;95659.09;5137323;27;20101;-63
2023/11/15 09:57:10;;;;;;;1999.90;999.90;;;;;;;19.38;39.85;95653.22;5137588;27;20042;-65
2023/11/15 09:59:40;;;;;;;1999.90;999.90;;;;;;;19.29;40.00;95652.22;5137481;27;20126;-64
2023/11/15 10:02:07;;;;;;;1999.90;999.90;;;;;;;19.25;40.95;95649.97;5137124;27;20043;-64
2023/11/15 10:04:34;;;;;;;1999.90;999.90;;;;;;;19.19;40.50;95643.41;5137170;27;20047;-65
2023/11/15 10:07:01;;;;;;;1999.90;999.90;;;;;;;19.28;41.13;95639.09;5137427;27;20043;-66
2023/11/15 10:09:35;;;;;;;1999.90;999.90;;;;;;;19.42;40.69;95637.88;5137049;27;20104;-66
2023/11/15 10:12:05;;;;;;;1999.90;999.90;;;;;;;19.60;40.38;95629.28;5136884;27;20100;-64
2023/11/15 10:14:36;;;;;;;1999.90;999.90;;;;;;;19.70;38.83;95630.97;5137231;27;20047;-66
2023/11/15 10:17:06;;;;;;;1999.90;999.90;;;;;;;19.71;38.86;95631.78;5136974;27;20047;-65
2023/11/15 10:19:34;;;;;;;1999.90;999.90;;;;;;;19.68;39.49;95632.91;5136895;27;20420;-64
2023/11/15 10:22:02;;;;;;;1999.90;999.90;;;;;;;19.63;39.50;95650.22;5136941;27;20096;-64
2023/11/15 10:24:30;;;;;;;1999.90;999.90;;;;;;;19.52;38.89;95645.84;5136864;27;20051;-64
2023/11/15 10:26:58;;;;;;;1999.90;999.90;;;;;;;19.47;38.63;95643.59;5136870;27;20096;-65
2023/11/15 10:29:27;;;;;;;1999.90;999.90;;;;;;;19.40;39.13;95638.03;5136554;27;20154;-66
2023/11/15 10:32:00;;;;;;;1999.90;999.90;;;;;;;19.29;38.49;95644.25;5136586;27;20096;-63
2023/11/15 10:34:32;;;;;;;1999.90;999.90;;;;;;;19.22;38.53;95636.97;5136472;27;20047;-63
2023/11/15 10:37:07;;;;;;;1999.90;999.90;;;;;;;19.21;39.04;95636.16;5136513;27;20381;-63
2023/11/15 10:39:40;;;;;;;1999.90;999.90;;;;;;;19.16;39.50;95646.31;5136493;27;20062;-65
2023/11/15 10:42:13;;;;;;;1999.90;999.90;;;;;;;19.10;39.63;95652.13;5135621;27;20096;-65
2023/11/15 10:44:47;;;;;;;1999.90;999.90;;;;;;;19.10;40.87;95655.63;5136505;27;20095;-63
2023/11/15 10:47:19;;;;;;;1999.90;999.90;;;;;;;19.12;39.47;95668.75;5136289;27;20070;-63
2023/11/15 10:49:53;;;;;;;1999.90;999.90;;;;;;;19.01;41.51;95659.03;5136083;27;20563;-63
2023/11/15 10:52:22;;;;;;;1999.90;999.90;;;;;;;18.97;41.91;95660.28;5136138;27;20503;-63
2023/11/15 10:54:50;;;;;;;1999.90;999.90;;;;;;;18.90;41.46;95655.50;5136134;27;20126;-66
2023/11/15 10:57:19;;;;;;;1999.90;999.90;;;;;;;18.91;41.69;95670.44;5136119;27;20612;-64
2023/11/15 10:59:49;;;;;;;1999.90;999.90;;;;;;;18.88;41.34;95665.41;5135883;27;20051;-67
2023/11/15 11:02:17;;;;;;;1999.90;999.90;;;;;;;18.86;40.90;95658.56;5135936;27;20047;-66
2023/11/15 11:04:46;;;;;;;1999.90;999.90;;;;;;;18.85;43.42;95670.13;5136037;27;20067;-65
2023/11/15 11:07:21;;;;;;;1999.90;999.90;;;;;;;18.74;44.07;95673.69;5135901;27;20496;-66